sensor_id;sensor_type;location;lat;lon;timestamp;pressure;altitude;pressure_sealevel;temperature;humidity
63607;BME280;51327;52.466;-1.938;2022-11-30T07:53:55;100720.75;;;3.02;100.00
63607;BME280;51327;52.466;-1.938;2022-11-30T07:56:23;100720.75;;;3.02;100.00
63607;BME280;51327;52.466;-1.938;2022-11-30T07:58:55;100723.38;;;3.02;100.00
63607;BME280;51327;52.466;-1.938;2022-11-30T08:01:21;100721.66;;;3.02;100.00
63607;BME280;51327;52.466;-1.938;2022-11-30T08:03:47;100732.19;;;3.02;100.00
63607;BME280;51327;52.466;-1.938;2022-11-30T08:06:16;100726.91;;;3.02;100.00
63607;BME280;51327;52.466;-1.938;2022-11-30T08:08:44;100736.56;;;3.03;100.00
63607;BME280;51327;52.466;-1.938;2022-11-30T08:11:11;100730.38;;;3.04;100.00
63607;BME280;51327;52.466;-1.938;2022-11-30T08:13:52;100742.69;;;3.05;100.00
63607;BME280;51327;52.466;-1.938;2022-11-30T08:16:21;100740.94;;;3.04;100.00
63607;BME280;51327;52.466;-1.938;2022-11-30T08:18:46;100742.66;;;3.07;100.00
63607;BME280;51327;52.466;-1.938;2022-11-30T08:21:13;100740.88;;;3.07;100.00
63607;BME280;51327;52.466;-1.938;2022-11-30T08:23:44;100738.25;;;3.07;100.00
63607;BME280;51327;52.466;-1.938;2022-11-30T08:26:11;100754.88;;;3.11;100.00
63607;BME280;51327;52.466;-1.938;2022-11-30T08:28:37;100744.31;;;3.12;100.00
63607;BME280;51327;52.466;-1.938;2022-11-30T08:31:06;100753.06;;;3.14;100.00
63607;BME280;51327;52.466;-1.938;2022-11-30T08:33:34;100752.19;;;3.14;100.00
63607;BME280;51327;52.466;-1.938;2022-11-30T08:36:09;100758.34;;;3.14;100.00
63607;BME280;51327;52.466;-1.938;2022-11-30T08:38:38;100763.56;;;3.18;100.00
63607;BME280;51327;52.466;-1.938;2022-11-30T08:41:04;100756.47;;;3.21;100.00
63607;BME280;51327;52.466;-1.938;2022-11-30T08:43:30;100759.94;;;3.23;100.00
63607;BME280;51327;52.466;-1.938;2022-11-30T08:45:58;100749.38;;;3.25;100.00
63607;BME280;51327;52.466;-1.938;2022-11-30T08:48:24;100754.59;;;3.26;100.00
63607;BME280;51327;52.466;-1.938;2022-11-30T08:50:49;100755.47;;;3.27;100.00
63607;BME280;51327;52.466;-1.938;2022-11-30T08:53:17;100750.16;;;3.28;100.00
63607;BME280;51327;52.466;-1.938;2022-11-30T08:55:42;100746.59;;;3.31;100.00
63607;BME280;51327;52.466;-1.938;2022-11-30T08:58:08;100746.56;;;3.32;100.00
63607;BME280;51327;52.466;-1.938;2022-11-30T09:00:36;100748.38;;;3.29;100.00
63607;BME280;51327;52.466;-1.938;2022-11-30T09:03:01;100756.31;;;3.29;100.00
63607;BME280;51327;52.466;-1.938;2022-11-30T09:05:27;100747.44;;;3.31;100.00
63607;BME280;51327;52.466;-1.938;2022-11-30T09:07:55;100743.00;;;3.35;100.00
63607;BME280;51327;52.466;-1.938;2022-11-30T09:10:20;100738.56;;;3.35;100.00
63607;BME280;51327;52.466;-1.938;2022-11-30T09:12:46;100745.53;;;3.40;100.00
63607;BME280;51327;52.466;-1.938;2022-11-30T09:15:14;100743.75;;;3.40;100.00
63607;BME280;51327;52.466;-1.938;2022-11-30T09:17:39;100743.72;;;3.43;100.00
63607;BME280;51327;52.466;-1.938;2022-11-30T09:20:05;100755.06;;;3.48;100.00
63607;BME280;51327;52.466;-1.938;2022-11-30T09:22:34;100755.03;;;3.50;100.00
63607;BME280;51327;52.466;-1.938;2022-11-30T09:24:59;100757.63;;;3.51;100.00
63607;BME280;51327;52.466;-1.938;2022-11-30T09:27:25;100758.53;;;3.50;100.00
63607;BME280;51327;52.466;-1.938;2022-11-30T09:29:57;100761.19;;;3.50;100.00
63607;BME280;51327;52.466;-1.938;2022-11-30T09:32:23;100760.22;;;3.53;100.00
63607;BME280;51327;52.466;-1.938;2022-11-30T09:34:49;100760.13;;;3.58;100.00
63607;BME280;51327;52.466;-1.938;2022-11-30T09:37:16;100760.03;;;3.62;100.00
63607;BME280;51327;52.466;-1.938;2022-11-30T09:39:42;100761.72;;;3.66;100.00
63607;BME280;51327;52.466;-1.938;2022-11-30T09:45:05;100765.97;;;3.73;100.00
63607;BME280;51327;52.466;-1.938;2022-11-30T09:50:02;100771.06;;;3.83;100.00
63607;BME280;51327;52.466;-1.938;2022-11-30T09:52:45;100771.81;;;3.89;100.00
63607;BME280;51327;52.466;-1.938;2022-11-30T09:55:12;100776.97;;;3.95;100.00
63607;BME280;51327;52.466;-1.938;2022-11-30T09:57:57;100779.44;;;4.03;100.00
63607;BME280;51327;52.466;-1.938;2022-11-30T10:00:31;100775.78;;;4.09;100.00
63607;BME280;51327;52.466;-1.938;2022-11-30T10:03:03;100779.22;;;4.12;100.00
63607;BME280;51327;52.466;-1.938;2022-11-30T10:05:46;100786.19;;;4.16;100.00
63607;BME280;51327;52.466;-1.938;2022-11-30T10:10:53;100785.09;;;4.25;100.00
63607;BME280;51327;52.466;-1.938;2022-11-30T10:16:26;100790.19;;;4.34;100.00
63607;BME280;51327;52.466;-1.938;2022-11-30T10:19:02;100788.31;;;4.38;100.00
63607;BME280;51327;52.466;-1.938;2022-11-30T10:26:51;100779.19;;;4.51;100.00
63607;BME280;51327;52.466;-1.938;2022-11-30T10:29:23;100786.16;;;4.55;100.00
63607;BME280;51327;52.466;-1.938;2022-11-30T10:31:55;100787.72;;;4.64;100.00
63607;BME280;51327;52.466;-1.938;2022-11-30T10:34:30;100786.66;;;4.70;100.00
63607;BME280;51327;52.466;-1.938;2022-11-30T10:37:00;100791.84;;;4.74;100.00
63607;BME280;51327;52.466;-1.938;2022-11-30T10:39:29;100792.69;;;4.76;100.00
63607;BME280;51327;52.466;-1.938;2022-11-30T10:42:04;100794.31;;;4.82;100.00
63607;BME280;51327;52.466;-1.938;2022-11-30T10:44:33;100791.63;;;4.84;100.00
63607;BME280;51327;52.466;-1.938;2022-11-30T10:47:16;100797.75;;;4.86;100.00
63607;BME280;51327;52.466;-1.938;2022-11-30T10:49:45;100800.28;;;4.90;100.00
63607;BME280;51327;52.466;-1.938;2022-11-30T10:52:19;100804.66;;;4.93;100.00
63607;BME280;51327;52.466;-1.938;2022-11-30T10:54:48;100813.38;;;4.96;100.00
63607;BME280;51327;52.466;-1.938;2022-11-30T10:57:19;100806.22;;;5.00;100.00
63607;BME280;51327;52.466;-1.938;2022-11-30T10:59:49;100814.09;;;5.01;100.00
63607;BME280;51327;52.466;-1.938;2022-11-30T11:07:41;100831.66;;;5.06;100.00
63607;BME280;51327;52.466;-1.938;2022-11-30T11:10:14;100833.41;;;5.07;100.00
63607;BME280;51327;52.466;-1.938;2022-11-30T11:12:50;100829.00;;;5.06;100.00
63607;BME280;51327;52.466;-1.938;2022-11-30T11:15:21;100838.66;;;5.08;100.00
63607;BME280;51327;52.466;-1.938;2022-11-30T11:17:49;100835.00;;;5.14;100.00
63607;BME280;51327;52.466;-1.938;2022-11-30T11:22:54;100832.09;;;5.23;100.00
63607;BME280;51327;52.466;-1.938;2022-11-30T11:25:35;100833.78;;;5.26;100.00
63607;BME280;51327;52.466;-1.938;2022-11-30T11:28:05;100834.53;;;5.31;100.00
63607;BME280;51327;52.466;-1.938;2022-11-30T11:30:35;100833.59;;;5.33;100.00
63607;BME280;51327;52.466;-1.938;2022-11-30T11:33:21;100826.34;;;5.40;100.00
63607;BME280;51327;52.466;-1.938;2022-11-30T11:35:50;100826.28;;;5.43;100.00
63607;BME280;51327;52.466;-1.938;2022-11-30T11:38:29;100828.97;;;5.41;100.00
63607;BME280;51327;52.466;-1.938;2022-11-30T11:41:39;100835.84;;;5.47;100.00
63607;BME280;51327;52.466;-1.938;2022-11-30T11:44:22;100839.28;;;5.52;100.00
63607;BME280;51327;52.466;-1.938;2022-11-30T11:46:52;100840.97;;;5.55;100.00
63607;BME280;51327;52.466;-1.938;2022-11-30T11:49:22;100830.41;;;5.53;100.00
63607;BME280;51327;52.466;-1.938;2022-11-30T11:52:13;100825.09;;;5.53;100.00
63607;BME280;51327;52.466;-1.938;2022-11-30T11:57:12;100835.56;;;5.58;100.00
63607;BME280;51327;52.466;-1.938;2022-11-30T11:59:47;100824.09;;;5.57;100.00
63607;BME280;51327;52.466;-1.938;2022-11-30T12:04:51;100828.34;;;5.63;100.00
63607;BME280;51327;52.466;-1.938;2022-11-30T12:10:05;100824.59;;;5.72;100.00
63607;BME280;51327;52.466;-1.938;2022-11-30T12:12:38;100823.84;;;5.67;100.00
63607;BME280;51327;52.466;-1.938;2022-11-30T12:15:09;100816.06;;;5.60;100.00
63607;BME280;51327;52.466;-1.938;2022-11-30T12:17:54;100817.84;;;5.60;100.00
63607;BME280;51327;52.466;-1.938;2022-11-30T12:28:29;100827.22;;;5.72;100.00
63607;BME280;51327;52.466;-1.938;2022-11-30T12:31:12;100827.16;;;5.75;100.00
63607;BME280;51327;52.466;-1.938;2022-11-30T12:43:53;100826.22;;;5.77;100.00
63607;BME280;51327;52.466;-1.938;2022-11-30T12:46:33;100830.66;;;5.77;100.00
63607;BME280;51327;52.466;-1.938;2022-11-30T12:49:14;100834.91;;;5.81;100.00
63607;BME280;51327;52.466;-1.938;2022-11-30T13:02:51;100833.66;;;5.96;100.00
63607;BME280;51327;52.466;-1.938;2022-11-30T13:05:03;100833.53;;;6.00;100.00
63607;BME280;51327;52.466;-1.938;2022-11-30T13:07:43;100836.88;;;6.07;100.00
63607;BME280;51327;52.466;-1.938;2022-11-30T13:12:38;100830.72;;;6.05;100.00
63607;BME280;51327;52.466;-1.938;2022-11-30T13:15:16;100834.38;;;6.01;100.00
63607;BME280;51327;52.466;-1.938;2022-11-30T13:17:45;100830.97;;;5.97;100.00
63607;BME280;51327;52.466;-1.938;2022-11-30T13:20:24;100832.72;;;5.97;100.00
63607;BME280;51327;52.466;-1.938;2022-11-30T13:23:06;100844.25;;;5.96;100.00
63607;BME280;51327;52.466;-1.938;2022-11-30T13:28:12;100842.47;;;5.96;100.00
63607;BME280;51327;52.466;-1.938;2022-11-30T13:46:49;100852.94;;;6.01;100.00
63607;BME280;51327;52.466;-1.938;2022-11-30T13:49:26;100851.28;;;5.97;100.00
63607;BME280;51327;52.466;-1.938;2022-11-30T13:51:54;100863.66;;;5.98;100.00
63607;BME280;51327;52.466;-1.938;2022-11-30T13:59:56;100854.03;;;5.92;100.00
63607;BME280;51327;52.466;-1.938;2022-11-30T14:20:36;100857.25;;;5.72;100.00
63607;BME280;51327;52.466;-1.938;2022-11-30T14:25:48;100863.56;;;5.68;100.00
63607;BME280;51327;52.466;-1.938;2022-11-30T14:28:16;100862.69;;;5.68;100.00
63607;BME280;51327;52.466;-1.938;2022-11-30T14:30:43;100859.28;;;5.62;100.00
63607;BME280;51327;52.466;-1.938;2022-11-30T14:33:15;100865.56;;;5.60;100.00
63607;BME280;51327;52.466;-1.938;2022-11-30T14:35:41;100867.38;;;5.58;100.00
63607;BME280;51327;52.466;-1.938;2022-11-30T14:38:23;100863.88;;;5.56;100.00
63607;BME280;51327;52.466;-1.938;2022-11-30T14:40:51;100869.28;;;5.53;100.00
63607;BME280;51327;52.466;-1.938;2022-11-30T14:43:17;100863.19;;;5.49;100.00
63607;BME280;51327;52.466;-1.938;2022-11-30T14:45:54;100861.50;;;5.47;100.00
63607;BME280;51327;52.466;-1.938;2022-11-30T14:48:22;100857.03;;;5.47;100.00
63607;BME280;51327;52.466;-1.938;2022-11-30T14:50:52;100854.53;;;5.42;100.00
63607;BME280;51327;52.466;-1.938;2022-11-30T14:53:21;100859.06;;;5.39;100.00
63607;BME280;51327;52.466;-1.938;2022-11-30T14:55:57;100864.41;;;5.36;100.00
63607;BME280;51327;52.466;-1.938;2022-11-30T14:58:39;100860.97;;;5.34;100.00
63607;BME280;51327;52.466;-1.938;2022-11-30T15:01:16;100860.06;;;5.33;100.00
63607;BME280;51327;52.466;-1.938;2022-11-30T15:03:42;100860.16;;;5.30;100.00
63607;BME280;51327;52.466;-1.938;2022-11-30T15:06:12;100865.53;;;5.27;100.00
63607;BME280;51327;52.466;-1.938;2022-11-30T15:08:45;100862.09;;;5.23;100.00
63607;BME280;51327;52.466;-1.938;2022-11-30T15:11:16;100865.72;;;5.19;100.00
63607;BME280;51327;52.466;-1.938;2022-11-30T15:13:46;100857.78;;;5.19;100.00
63607;BME280;51327;52.466;-1.938;2022-11-30T15:16:19;100864.88;;;5.19;100.00
63607;BME280;51327;52.466;-1.938;2022-11-30T15:18:48;100862.31;;;5.16;100.00
63607;BME280;51327;52.466;-1.938;2022-11-30T15:21:20;100866.75;;;5.14;100.00
63607;BME280;51327;52.466;-1.938;2022-11-30T15:23:47;100867.75;;;5.10;100.00
63607;BME280;51327;52.466;-1.938;2022-11-30T15:29:03;100870.63;;;5.00;100.00
63607;BME280;51327;52.466;-1.938;2022-11-30T15:31:40;100876.81;;;4.99;100.00
63607;BME280;51327;52.466;-1.938;2022-11-30T15:34:17;100873.38;;;4.96;100.00
63607;BME280;51327;52.466;-1.938;2022-11-30T15:36:43;100881.34;;;4.94;100.00
63607;BME280;51327;52.466;-1.938;2022-11-30T15:39:15;100876.13;;;4.93;100.00
63607;BME280;51327;52.466;-1.938;2022-11-30T15:41:42;100872.63;;;4.91;100.00
63607;BME280;51327;52.466;-1.938;2022-11-30T15:44:16;100878.84;;;4.88;100.00
63607;BME280;51327;52.466;-1.938;2022-11-30T15:46:58;100881.59;;;4.84;100.00
63607;BME280;51327;52.466;-1.938;2022-11-30T15:49:25;100879.91;;;4.81;100.00
63607;BME280;51327;52.466;-1.938;2022-11-30T15:52:27;100880.84;;;4.78;100.00
63607;BME280;51327;52.466;-1.938;2022-11-30T15:57:14;100887.16;;;4.73;100.00
63607;BME280;51327;52.466;-1.938;2022-11-30T15:59:40;100888.13;;;4.70;100.00
63607;BME280;51327;52.466;-1.938;2022-11-30T16:02:06;100892.50;;;4.70;100.00
63607;BME280;51327;52.466;-1.938;2022-11-30T16:07:23;100884.63;;;4.68;100.00
63607;BME280;51327;52.466;-1.938;2022-11-30T16:09:49;100882.88;;;4.67;100.00
63607;BME280;51327;52.466;-1.938;2022-11-30T16:12:25;100891.72;;;4.66;100.00
63607;BME280;51327;52.466;-1.938;2022-11-30T16:14:54;100899.66;;;4.66;100.00
63607;BME280;51327;52.466;-1.938;2022-11-30T16:17:20;100906.75;;;4.64;100.00
63607;BME280;51327;52.466;-1.938;2022-11-30T16:19:45;100900.63;;;4.62;100.00
63607;BME280;51327;52.466;-1.938;2022-11-30T16:22:14;100910.38;;;4.60;100.00
63607;BME280;51327;52.466;-1.938;2022-11-30T16:24:44;100906.03;;;4.57;100.00
63607;BME280;51327;52.466;-1.938;2022-11-30T16:27:13;100899.03;;;4.55;100.00
63607;BME280;51327;52.466;-1.938;2022-11-30T16:29:41;100909.63;;;4.55;100.00
63607;BME280;51327;52.466;-1.938;2022-11-30T16:32:10;100904.28;;;4.56;100.00
63607;BME280;51327;52.466;-1.938;2022-11-30T16:34:36;100911.34;;;4.56;100.00
63607;BME280;51327;52.466;-1.938;2022-11-30T16:37:01;100911.41;;;4.54;100.00
63607;BME280;51327;52.466;-1.938;2022-11-30T16:39:30;100912.31;;;4.52;100.00
63607;BME280;51327;52.466;-1.938;2022-11-30T16:41:56;100909.72;;;4.50;100.00
63607;BME280;51327;52.466;-1.938;2022-11-30T16:44:22;100915.91;;;4.49;100.00
63607;BME280;51327;52.466;-1.938;2022-11-30T16:46:52;100917.69;;;4.49;100.00
63607;BME280;51327;52.466;-1.938;2022-11-30T16:49:18;100921.19;;;4.49;100.00
63607;BME280;51327;52.466;-1.938;2022-11-30T16:51:45;100922.09;;;4.50;100.00
63607;BME280;51327;52.466;-1.938;2022-11-30T16:54:13;100929.19;;;4.48;100.00
63607;BME280;51327;52.466;-1.938;2022-11-30T16:56:42;100938.84;;;4.49;100.00
63607;BME280;51327;52.466;-1.938;2022-11-30T16:59:08;100930.06;;;4.47;100.00
63607;BME280;51327;52.466;-1.938;2022-11-30T17:01:37;100929.22;;;4.45;100.00
63607;BME280;51327;52.466;-1.938;2022-11-30T17:04:11;100925.69;;;4.46;100.00
63607;BME280;51327;52.466;-1.938;2022-11-30T17:06:41;100927.41;;;4.47;100.00
63607;BME280;51327;52.466;-1.938;2022-11-30T17:09:16;100934.47;;;4.48;100.00
63607;BME280;51327;52.466;-1.938;2022-11-30T17:11:45;100930.03;;;4.48;100.00
63607;BME280;51327;52.466;-1.938;2022-11-30T17:14:12;100927.41;;;4.47;100.00
63607;BME280;51327;52.466;-1.938;2022-11-30T17:16:38;100937.06;;;4.49;100.00
63607;BME280;51327;52.466;-1.938;2022-11-30T17:19:06;100937.13;;;4.48;100.00
63607;BME280;51327;52.466;-1.938;2022-11-30T17:21:33;100945.06;;;4.46;100.00
63607;BME280;51327;52.466;-1.938;2022-11-30T17:23:59;100944.22;;;4.46;100.00
63607;BME280;51327;52.466;-1.938;2022-11-30T17:26:27;100945.94;;;4.47;100.00
63607;BME280;51327;52.466;-1.938;2022-11-30T17:28:53;100945.03;;;4.48;100.00
63607;BME280;51327;52.466;-1.938;2022-11-30T17:31:18;100941.56;;;4.46;100.00
63607;BME280;51327;52.466;-1.938;2022-11-30T17:33:46;100944.22;;;4.46;100.00
63607;BME280;51327;52.466;-1.938;2022-11-30T17:36:13;100951.31;;;4.44;100.00
63607;BME280;51327;52.466;-1.938;2022-11-30T17:38:48;100949.53;;;4.44;100.00
63607;BME280;51327;52.466;-1.938;2022-11-30T17:41:17;100956.56;;;4.45;100.00
63607;BME280;51327;52.466;-1.938;2022-11-30T17:43:43;100960.91;;;4.48;100.00
63607;BME280;51327;52.466;-1.938;2022-11-30T17:46:09;100964.44;;;4.47;100.00
63607;BME280;51327;52.466;-1.938;2022-11-30T17:48:37;100963.59;;;4.45;100.00
63607;BME280;51327;52.466;-1.938;2022-11-30T17:51:03;100966.25;;;4.45;100.00
63607;BME280;51327;52.466;-1.938;2022-11-30T17:53:29;100977.75;;;4.44;100.00
63607;BME280;51327;52.466;-1.938;2022-11-30T17:56:01;100975.97;;;4.44;100.00
63607;BME280;51327;52.466;-1.938;2022-11-30T17:58:29;100978.63;;;4.43;100.00
63607;BME280;51327;52.466;-1.938;2022-11-30T18:00:55;100976.03;;;4.41;100.00
63607;BME280;51327;52.466;-1.938;2022-11-30T18:03:21;100981.34;;;4.41;100.00
63607;BME280;51327;52.466;-1.938;2022-11-30T18:05:51;100991.00;;;4.42;100.00
63607;BME280;51327;52.466;-1.938;2022-11-30T18:08:16;100992.78;;;4.42;100.00
63607;BME280;51327;52.466;-1.938;2022-11-30T18:10:42;100982.22;;;4.40;100.00
63607;BME280;51327;52.466;-1.938;2022-11-30T18:13:14;100997.19;;;4.41;100.00
63607;BME280;51327;52.466;-1.938;2022-11-30T18:15:44;101003.38;;;4.40;100.00
63607;BME280;51327;52.466;-1.938;2022-11-30T18:18:12;101003.38;;;4.40;100.00
63607;BME280;51327;52.466;-1.938;2022-11-30T18:20:46;101002.50;;;4.41;100.00
63607;BME280;51327;52.466;-1.938;2022-11-30T18:23:23;101006.91;;;4.41;100.00
63607;BME280;51327;52.466;-1.938;2022-11-30T18:25:50;101008.66;;;4.40;100.00
63607;BME280;51327;52.466;-1.938;2022-11-30T18:28:18;101009.59;;;4.39;100.00
63607;BME280;51327;52.466;-1.938;2022-11-30T18:30:43;101010.47;;;4.38;100.00
63607;BME280;51327;52.466;-1.938;2022-11-30T18:33:09;101021.03;;;4.38;100.00
63607;BME280;51327;52.466;-1.938;2022-11-30T18:35:37;101020.19;;;4.37;100.00
63607;BME280;51327;52.466;-1.938;2022-11-30T18:38:02;101021.09;;;4.36;100.00
63607;BME280;51327;52.466;-1.938;2022-11-30T18:40:28;101018.44;;;4.36;100.00
63607;BME280;51327;52.466;-1.938;2022-11-30T18:42:55;101016.66;;;4.37;100.00
63607;BME280;51327;52.466;-1.938;2022-11-30T18:45:23;101021.97;;;4.37;100.00
63607;BME280;51327;52.466;-1.938;2022-11-30T18:47:49;101021.09;;;4.36;100.00
63607;BME280;51327;52.466;-1.938;2022-11-30T18:50:14;101023.75;;;4.36;100.00
63607;BME280;51327;52.466;-1.938;2022-11-30T18:52:42;101025.53;;;4.34;100.00
63607;BME280;51327;52.466;-1.938;2022-11-30T18:55:11;101035.25;;;4.34;100.00
63607;BME280;51327;52.466;-1.938;2022-11-30T18:57:40;101033.50;;;4.33;100.00
63607;BME280;51327;52.466;-1.938;2022-11-30T19:00:11;101031.72;;;4.33;100.00
63607;BME280;51327;52.466;-1.938;2022-11-30T19:02:37;101040.56;;;4.32;100.00
63607;BME280;51327;52.466;-1.938;2022-11-30T20:55:09;101158.03;;;4.17;100.00
63607;BME280;51327;52.466;-1.938;2022-11-30T21:00:27;101167.69;;;4.20;100.00
63607;BME280;51327;52.466;-1.938;2022-11-30T22:09:54;101133.19;;;4.29;100.00
63607;BME280;51327;52.466;-1.938;2022-11-30T22:17:46;101137.56;;;4.30;100.00
63607;BME280;51327;52.466;-1.938;2022-11-30T22:20:15;101133.13;;;4.31;100.00
63607;BME280;51327;52.466;-1.938;2022-11-30T22:44:46;101157.00;;;4.28;100.00
63607;BME280;51327;52.466;-1.938;2022-11-30T23:41:54;101118.94;;;3.84;100.00
63607;BME280;51327;52.466;-1.938;2022-11-30T23:44:38;101113.84;;;3.73;100.00
